sensor_id;sensor_type;location;lat;lon;timestamp;P1;durP1;ratioP1;P2;durP2;ratioP2
59159;SDS011;44941;45.058;20.076;2022-09-12T00:00:32;2.75;;;0.30;;
59159;SDS011;44941;45.058;20.076;2022-09-12T00:02:58;2.05;;;0.52;;
59159;SDS011;44941;45.058;20.076;2022-09-12T00:05:25;2.60;;;0.20;;
59159;SDS011;44941;45.058;20.076;2022-09-12T00:07:52;1.55;;;0.30;;
59159;SDS011;44941;45.058;20.076;2022-09-12T00:10:18;3.75;;;0.40;;
59159;SDS011;44941;45.058;20.076;2022-09-12T00:12:44;3.05;;;0.50;;
59159;SDS011;44941;45.058;20.076;2022-09-12T00:15:10;0.60;;;0.30;;
59159;SDS011;44941;45.058;20.076;2022-09-12T00:17:37;1.40;;;0.35;;
59159;SDS011;44941;45.058;20.076;2022-09-12T00:20:06;0.88;;;0.25;;
59159;SDS011;44941;45.058;20.076;2022-09-12T00:22:33;1.27;;;0.30;;
59159;SDS011;44941;45.058;20.076;2022-09-12T00:25:00;3.28;;;0.50;;
59159;SDS011;44941;45.058;20.076;2022-09-12T00:27:26;3.72;;;0.40;;
59159;SDS011;44941;45.058;20.076;2022-09-12T00:29:52;2.50;;;0.50;;
59159;SDS011;44941;45.058;20.076;2022-09-12T00:32:18;0.60;;;0.32;;
59159;SDS011;44941;45.058;20.076;2022-09-12T00:34:45;2.05;;;0.55;;
59159;SDS011;44941;45.058;20.076;2022-09-12T00:37:11;2.20;;;0.43;;
59159;SDS011;44941;45.058;20.076;2022-09-12T00:39:37;2.47;;;0.63;;
59159;SDS011;44941;45.058;20.076;2022-09-12T00:42:03;1.33;;;0.43;;
59159;SDS011;44941;45.058;20.076;2022-09-12T00:46:59;2.17;;;0.60;;
59159;SDS011;44941;45.058;20.076;2022-09-12T00:49:29;2.90;;;0.50;;
59159;SDS011;44941;45.058;20.076;2022-09-12T00:52:39;2.70;;;0.50;;
59159;SDS011;44941;45.058;20.076;2022-09-12T00:57:12;1.15;;;0.50;;
59159;SDS011;44941;45.058;20.076;2022-09-12T00:59:46;1.25;;;0.40;;
59159;SDS011;44941;45.058;20.076;2022-09-12T01:02:14;2.47;;;0.40;;
59159;SDS011;44941;45.058;20.076;2022-09-12T01:04:40;2.05;;;0.60;;
59159;SDS011;44941;45.058;20.076;2022-09-12T01:07:07;1.42;;;0.40;;
59159;SDS011;44941;45.058;20.076;2022-09-12T01:09:33;1.42;;;0.50;;
59159;SDS011;44941;45.058;20.076;2022-09-12T01:12:01;2.38;;;0.52;;
59159;SDS011;44941;45.058;20.076;2022-09-12T01:14:27;5.93;;;0.43;;
59159;SDS011;44941;45.058;20.076;2022-09-12T01:16:54;2.37;;;0.47;;
59159;SDS011;44941;45.058;20.076;2022-09-12T01:19:39;2.45;;;0.50;;
59159;SDS011;44941;45.058;20.076;2022-09-12T01:27:22;1.67;;;0.40;;
59159;SDS011;44941;45.058;20.076;2022-09-12T01:32:45;1.48;;;0.50;;
59159;SDS011;44941;45.058;20.076;2022-09-12T01:35:22;2.08;;;0.40;;
59159;SDS011;44941;45.058;20.076;2022-09-12T01:43:37;0.93;;;0.40;;
59159;SDS011;44941;45.058;20.076;2022-09-12T01:48:15;2.53;;;0.50;;
59159;SDS011;44941;45.058;20.076;2022-09-12T01:50:51;0.65;;;0.40;;
59159;SDS011;44941;45.058;20.076;2022-09-12T01:53:32;1.05;;;0.40;;
59159;SDS011;44941;45.058;20.076;2022-09-12T01:56:07;3.28;;;0.50;;
59159;SDS011;44941;45.058;20.076;2022-09-12T01:58:36;0.95;;;0.40;;
59159;SDS011;44941;45.058;20.076;2022-09-12T02:01:08;2.83;;;0.50;;
59159;SDS011;44941;45.058;20.076;2022-09-12T02:03:38;0.90;;;0.40;;
59159;SDS011;44941;45.058;20.076;2022-09-12T02:06:19;0.90;;;0.32;;
59159;SDS011;44941;45.058;20.076;2022-09-12T02:08:46;3.15;;;0.50;;
59159;SDS011;44941;45.058;20.076;2022-09-12T02:11:13;1.40;;;0.30;;
59159;SDS011;44941;45.058;20.076;2022-09-12T02:13:43;1.83;;;0.30;;
59159;SDS011;44941;45.058;20.076;2022-09-12T02:16:15;1.92;;;0.57;;
59159;SDS011;44941;45.058;20.076;2022-09-12T02:18:44;1.48;;;0.25;;
59159;SDS011;44941;45.058;20.076;2022-09-12T02:23:38;2.45;;;0.30;;
59159;SDS011;44941;45.058;20.076;2022-09-12T02:26:07;2.20;;;0.40;;
59159;SDS011;44941;45.058;20.076;2022-09-12T02:28:36;0.80;;;0.40;;
59159;SDS011;44941;45.058;20.076;2022-09-12T02:34:00;1.25;;;0.40;;
59159;SDS011;44941;45.058;20.076;2022-09-12T02:39:07;1.17;;;0.57;;
59159;SDS011;44941;45.058;20.076;2022-09-12T02:41:33;3.25;;;0.50;;
59159;SDS011;44941;45.058;20.076;2022-09-12T02:44:00;1.38;;;0.40;;
59159;SDS011;44941;45.058;20.076;2022-09-12T02:46:30;3.25;;;0.50;;
59159;SDS011;44941;45.058;20.076;2022-09-12T02:48:58;1.80;;;0.40;;
59159;SDS011;44941;45.058;20.076;2022-09-12T02:51:24;1.00;;;0.20;;
59159;SDS011;44941;45.058;20.076;2022-09-12T02:53:50;2.00;;;0.38;;
59159;SDS011;44941;45.058;20.076;2022-09-12T02:56:18;1.02;;;0.40;;
59159;SDS011;44941;45.058;20.076;2022-09-12T02:58:46;1.20;;;0.47;;
59159;SDS011;44941;45.058;20.076;2022-09-12T03:01:26;1.27;;;0.30;;
59159;SDS011;44941;45.058;20.076;2022-09-12T03:06:32;2.65;;;0.40;;
59159;SDS011;44941;45.058;20.076;2022-09-12T03:09:03;1.98;;;0.50;;
59159;SDS011;44941;45.058;20.076;2022-09-12T03:14:20;0.90;;;0.30;;
59159;SDS011;44941;45.058;20.076;2022-09-12T03:29:31;0.68;;;0.35;;
59159;SDS011;44941;45.058;20.076;2022-09-12T03:31:57;2.38;;;0.40;;
59159;SDS011;44941;45.058;20.076;2022-09-12T03:34:24;0.60;;;0.40;;
59159;SDS011;44941;45.058;20.076;2022-09-12T03:36:51;3.50;;;0.43;;
59159;SDS011;44941;45.058;20.076;2022-09-12T03:39:19;1.02;;;0.30;;
59159;SDS011;44941;45.058;20.076;2022-09-12T03:41:48;2.25;;;0.40;;
59159;SDS011;44941;45.058;20.076;2022-09-12T03:44:14;1.13;;;0.40;;
59159;SDS011;44941;45.058;20.076;2022-09-12T03:46:40;0.98;;;0.45;;
59159;SDS011;44941;45.058;20.076;2022-09-12T03:49:06;3.90;;;0.70;;
59159;SDS011;44941;45.058;20.076;2022-09-12T03:51:32;2.50;;;0.40;;
59159;SDS011;44941;45.058;20.076;2022-09-12T03:53:59;4.88;;;0.40;;
59159;SDS011;44941;45.058;20.076;2022-09-12T03:56:25;1.73;;;0.40;;
59159;SDS011;44941;45.058;20.076;2022-09-12T03:58:51;2.47;;;0.40;;
59159;SDS011;44941;45.058;20.076;2022-09-12T04:01:18;2.53;;;0.60;;
59159;SDS011;44941;45.058;20.076;2022-09-12T04:03:46;1.00;;;0.40;;
59159;SDS011;44941;45.058;20.076;2022-09-12T04:06:13;3.22;;;0.47;;
59159;SDS011;44941;45.058;20.076;2022-09-12T04:08:39;2.73;;;0.57;;
59159;SDS011;44941;45.058;20.076;2022-09-12T04:11:07;0.80;;;0.30;;
59159;SDS011;44941;45.058;20.076;2022-09-12T04:13:34;1.27;;;0.40;;
59159;SDS011;44941;45.058;20.076;2022-09-12T04:16:00;1.95;;;0.63;;
59159;SDS011;44941;45.058;20.076;2022-09-12T04:18:26;1.85;;;0.40;;
59159;SDS011;44941;45.058;20.076;2022-09-12T04:20:53;1.33;;;0.40;;
59159;SDS011;44941;45.058;20.076;2022-09-12T04:23:19;1.02;;;0.40;;
59159;SDS011;44941;45.058;20.076;2022-09-12T04:25:58;4.32;;;0.80;;
59159;SDS011;44941;45.058;20.076;2022-09-12T04:28:24;4.03;;;0.60;;
59159;SDS011;44941;45.058;20.076;2022-09-12T04:30:52;2.15;;;0.50;;
59159;SDS011;44941;45.058;20.076;2022-09-12T04:33:19;3.75;;;0.50;;
59159;SDS011;44941;45.058;20.076;2022-09-12T04:35:45;3.92;;;0.70;;
59159;SDS011;44941;45.058;20.076;2022-09-12T04:38:11;1.92;;;0.70;;
59159;SDS011;44941;45.058;20.076;2022-09-12T04:40:38;4.10;;;0.60;;
59159;SDS011;44941;45.058;20.076;2022-09-12T04:43:04;2.35;;;0.73;;
59159;SDS011;44941;45.058;20.076;2022-09-12T04:45:31;1.58;;;0.60;;
59159;SDS011;44941;45.058;20.076;2022-09-12T04:47:57;2.10;;;0.68;;
59159;SDS011;44941;45.058;20.076;2022-09-12T04:50:23;2.30;;;0.80;;
59159;SDS011;44941;45.058;20.076;2022-09-12T04:52:49;3.65;;;0.80;;
59159;SDS011;44941;45.058;20.076;2022-09-12T04:55:15;0.73;;;0.40;;
59159;SDS011;44941;45.058;20.076;2022-09-12T04:57:41;1.05;;;0.63;;
59159;SDS011;44941;45.058;20.076;2022-09-12T05:00:08;1.27;;;0.52;;
59159;SDS011;44941;45.058;20.076;2022-09-12T05:02:41;1.33;;;0.73;;
59159;SDS011;44941;45.058;20.076;2022-09-12T05:05:07;3.25;;;0.75;;
59159;SDS011;44941;45.058;20.076;2022-09-12T05:07:33;1.67;;;0.57;;
59159;SDS011;44941;45.058;20.076;2022-09-12T05:10:00;2.72;;;0.90;;
59159;SDS011;44941;45.058;20.076;2022-09-12T05:12:29;3.05;;;0.82;;
59159;SDS011;44941;45.058;20.076;2022-09-12T05:14:55;5.40;;;1.05;;
59159;SDS011;44941;45.058;20.076;2022-09-12T05:17:21;1.65;;;0.73;;
59159;SDS011;44941;45.058;20.076;2022-09-12T05:19:47;4.60;;;1.17;;
59159;SDS011;44941;45.058;20.076;2022-09-12T05:22:13;4.00;;;0.93;;
59159;SDS011;44941;45.058;20.076;2022-09-12T05:24:39;3.85;;;1.00;;
59159;SDS011;44941;45.058;20.076;2022-09-12T05:27:07;4.07;;;0.90;;
59159;SDS011;44941;45.058;20.076;2022-09-12T05:29:33;2.60;;;0.80;;
59159;SDS011;44941;45.058;20.076;2022-09-12T05:32:00;5.05;;;0.90;;
59159;SDS011;44941;45.058;20.076;2022-09-12T05:34:26;1.40;;;0.68;;
59159;SDS011;44941;45.058;20.076;2022-09-12T05:36:52;2.50;;;0.90;;
59159;SDS011;44941;45.058;20.076;2022-09-12T05:39:18;3.40;;;1.02;;
59159;SDS011;44941;45.058;20.076;2022-09-12T05:41:44;2.03;;;0.90;;
59159;SDS011;44941;45.058;20.076;2022-09-12T05:44:12;2.85;;;1.10;;
59159;SDS011;44941;45.058;20.076;2022-09-12T05:46:39;2.83;;;1.07;;
59159;SDS011;44941;45.058;20.076;2022-09-12T05:49:06;2.83;;;1.00;;
59159;SDS011;44941;45.058;20.076;2022-09-12T05:51:33;3.38;;;1.33;;
59159;SDS011;44941;45.058;20.076;2022-09-12T05:54:00;2.60;;;1.10;;
59159;SDS011;44941;45.058;20.076;2022-09-12T05:56:31;2.13;;;1.13;;
59159;SDS011;44941;45.058;20.076;2022-09-12T05:59:02;2.50;;;1.00;;
59159;SDS011;44941;45.058;20.076;2022-09-12T06:01:29;6.15;;;0.98;;
59159;SDS011;44941;45.058;20.076;2022-09-12T06:03:56;4.33;;;1.30;;
59159;SDS011;44941;45.058;20.076;2022-09-12T06:06:24;3.47;;;1.00;;
59159;SDS011;44941;45.058;20.076;2022-09-12T06:08:52;3.30;;;1.00;;
59159;SDS011;44941;45.058;20.076;2022-09-12T06:11:23;5.57;;;0.98;;
59159;SDS011;44941;45.058;20.076;2022-09-12T06:13:53;3.70;;;1.35;;
59159;SDS011;44941;45.058;20.076;2022-09-12T06:16:21;2.55;;;1.20;;
59159;SDS011;44941;45.058;20.076;2022-09-12T06:18:48;4.60;;;1.25;;
59159;SDS011;44941;45.058;20.076;2022-09-12T06:21:15;1.92;;;1.13;;
59159;SDS011;44941;45.058;20.076;2022-09-12T06:23:41;4.18;;;1.25;;
59159;SDS011;44941;45.058;20.076;2022-09-12T06:26:09;3.25;;;1.33;;
59159;SDS011;44941;45.058;20.076;2022-09-12T06:28:36;2.72;;;1.25;;
59159;SDS011;44941;45.058;20.076;2022-09-12T06:31:09;3.08;;;1.30;;
59159;SDS011;44941;45.058;20.076;2022-09-12T06:33:37;4.60;;;1.60;;
59159;SDS011;44941;45.058;20.076;2022-09-12T06:38:29;2.92;;;1.63;;
59159;SDS011;44941;45.058;20.076;2022-09-12T06:40:56;2.70;;;1.30;;
59159;SDS011;44941;45.058;20.076;2022-09-12T06:43:22;5.93;;;1.98;;
59159;SDS011;44941;45.058;20.076;2022-09-12T06:45:49;4.72;;;1.70;;
59159;SDS011;44941;45.058;20.076;2022-09-12T06:48:15;4.53;;;1.90;;
59159;SDS011;44941;45.058;20.076;2022-09-12T06:50:42;5.07;;;2.00;;
59159;SDS011;44941;45.058;20.076;2022-09-12T06:53:08;6.38;;;1.85;;
59159;SDS011;44941;45.058;20.076;2022-09-12T06:55:34;6.90;;;2.00;;
59159;SDS011;44941;45.058;20.076;2022-09-12T06:58:00;3.67;;;1.92;;
59159;SDS011;44941;45.058;20.076;2022-09-12T07:00:26;3.65;;;1.80;;
59159;SDS011;44941;45.058;20.076;2022-09-12T07:02:53;6.70;;;2.00;;
59159;SDS011;44941;45.058;20.076;2022-09-12T07:07:46;6.90;;;2.10;;
59159;SDS011;44941;45.058;20.076;2022-09-12T07:10:12;5.68;;;1.65;;
59159;SDS011;44941;45.058;20.076;2022-09-12T07:12:38;5.15;;;1.80;;
59159;SDS011;44941;45.058;20.076;2022-09-12T07:15:04;5.63;;;1.92;;
59159;SDS011;44941;45.058;20.076;2022-09-12T07:17:30;3.85;;;1.92;;
59159;SDS011;44941;45.058;20.076;2022-09-12T07:19:56;4.65;;;2.25;;
59159;SDS011;44941;45.058;20.076;2022-09-12T07:22:23;6.00;;;2.40;;
59159;SDS011;44941;45.058;20.076;2022-09-12T07:24:49;4.70;;;2.22;;
59159;SDS011;44941;45.058;20.076;2022-09-12T07:27:15;6.72;;;2.15;;
59159;SDS011;44941;45.058;20.076;2022-09-12T07:29:41;5.20;;;2.17;;
59159;SDS011;44941;45.058;20.076;2022-09-12T07:32:10;5.88;;;2.20;;
59159;SDS011;44941;45.058;20.076;2022-09-12T07:34:37;4.63;;;1.60;;
59159;SDS011;44941;45.058;20.076;2022-09-12T07:37:03;6.82;;;1.80;;
59159;SDS011;44941;45.058;20.076;2022-09-12T07:39:29;5.30;;;2.13;;
59159;SDS011;44941;45.058;20.076;2022-09-12T07:41:56;4.43;;;2.08;;
59159;SDS011;44941;45.058;20.076;2022-09-12T07:44:23;5.43;;;1.88;;
59159;SDS011;44941;45.058;20.076;2022-09-12T07:46:50;3.75;;;1.70;;
59159;SDS011;44941;45.058;20.076;2022-09-12T07:49:16;7.18;;;1.95;;
59159;SDS011;44941;45.058;20.076;2022-09-12T07:51:43;3.85;;;1.90;;
59159;SDS011;44941;45.058;20.076;2022-09-12T07:54:09;4.72;;;1.70;;
59159;SDS011;44941;45.058;20.076;2022-09-12T07:56:36;3.75;;;1.75;;
59159;SDS011;44941;45.058;20.076;2022-09-12T07:59:02;5.25;;;2.33;;
59159;SDS011;44941;45.058;20.076;2022-09-12T08:01:28;3.50;;;1.77;;
59159;SDS011;44941;45.058;20.076;2022-09-12T08:03:55;3.45;;;1.83;;
59159;SDS011;44941;45.058;20.076;2022-09-12T08:06:22;7.47;;;1.95;;
59159;SDS011;44941;45.058;20.076;2022-09-12T08:08:49;4.47;;;1.92;;
59159;SDS011;44941;45.058;20.076;2022-09-12T08:11:16;4.18;;;1.90;;
59159;SDS011;44941;45.058;20.076;2022-09-12T08:13:42;4.80;;;1.80;;
59159;SDS011;44941;45.058;20.076;2022-09-12T08:16:16;4.38;;;2.00;;
59159;SDS011;44941;45.058;20.076;2022-09-12T08:18:42;5.03;;;1.70;;
59159;SDS011;44941;45.058;20.076;2022-09-12T08:21:09;4.22;;;1.77;;
59159;SDS011;44941;45.058;20.076;2022-09-12T08:23:37;6.05;;;1.70;;
59159;SDS011;44941;45.058;20.076;2022-09-12T08:26:03;4.30;;;1.67;;
59159;SDS011;44941;45.058;20.076;2022-09-12T08:28:31;4.78;;;1.70;;
59159;SDS011;44941;45.058;20.076;2022-09-12T08:31:04;3.57;;;1.83;;
59159;SDS011;44941;45.058;20.076;2022-09-12T08:33:30;5.40;;;1.92;;
59159;SDS011;44941;45.058;20.076;2022-09-12T08:38:30;3.83;;;1.92;;
59159;SDS011;44941;45.058;20.076;2022-09-12T08:41:01;4.22;;;1.80;;
59159;SDS011;44941;45.058;20.076;2022-09-12T08:46:06;6.60;;;2.35;;
59159;SDS011;44941;45.058;20.076;2022-09-12T08:48:33;5.03;;;1.60;;
59159;SDS011;44941;45.058;20.076;2022-09-12T08:51:00;5.22;;;1.95;;
59159;SDS011;44941;45.058;20.076;2022-09-12T08:53:29;5.18;;;2.08;;
59159;SDS011;44941;45.058;20.076;2022-09-12T08:55:57;5.03;;;2.00;;
59159;SDS011;44941;45.058;20.076;2022-09-12T08:58:25;5.57;;;2.00;;
59159;SDS011;44941;45.058;20.076;2022-09-12T09:06:16;3.17;;;1.55;;
59159;SDS011;44941;45.058;20.076;2022-09-12T09:16:37;4.47;;;1.88;;
59159;SDS011;44941;45.058;20.076;2022-09-12T09:19:05;5.25;;;1.77;;
59159;SDS011;44941;45.058;20.076;2022-09-12T09:21:50;4.20;;;1.48;;
59159;SDS011;44941;45.058;20.076;2022-09-12T09:24:18;5.18;;;1.50;;
59159;SDS011;44941;45.058;20.076;2022-09-12T09:26:48;4.15;;;1.75;;
59159;SDS011;44941;45.058;20.076;2022-09-12T09:29:19;5.47;;;1.67;;
59159;SDS011;44941;45.058;20.076;2022-09-12T09:31:57;5.30;;;1.83;;
59159;SDS011;44941;45.058;20.076;2022-09-12T09:34:32;6.43;;;1.67;;
59159;SDS011;44941;45.058;20.076;2022-09-12T09:37:05;11.70;;;2.50;;
59159;SDS011;44941;45.058;20.076;2022-09-12T09:39:51;3.53;;;1.80;;
59159;SDS011;44941;45.058;20.076;2022-09-12T09:44:46;6.03;;;1.52;;
59159;SDS011;44941;45.058;20.076;2022-09-12T09:47:13;3.57;;;1.70;;
59159;SDS011;44941;45.058;20.076;2022-09-12T09:49:39;4.13;;;1.63;;
59159;SDS011;44941;45.058;20.076;2022-09-12T09:52:06;4.38;;;1.85;;
59159;SDS011;44941;45.058;20.076;2022-09-12T09:57:00;5.80;;;1.80;;
59159;SDS011;44941;45.058;20.076;2022-09-12T09:59:32;3.67;;;1.63;;
59159;SDS011;44941;45.058;20.076;2022-09-12T10:02:07;4.82;;;1.58;;
59159;SDS011;44941;45.058;20.076;2022-09-12T10:04:51;3.05;;;1.55;;
59159;SDS011;44941;45.058;20.076;2022-09-12T10:07:19;3.75;;;1.40;;
59159;SDS011;44941;45.058;20.076;2022-09-12T10:12:30;3.60;;;1.40;;
59159;SDS011;44941;45.058;20.076;2022-09-12T10:14:57;3.47;;;1.33;;
59159;SDS011;44941;45.058;20.076;2022-09-12T10:19:51;5.05;;;1.77;;
59159;SDS011;44941;45.058;20.076;2022-09-12T10:22:18;2.28;;;1.13;;
59159;SDS011;44941;45.058;20.076;2022-09-12T10:24:46;5.03;;;1.80;;
59159;SDS011;44941;45.058;20.076;2022-09-12T10:29:52;3.28;;;1.20;;
59159;SDS011;44941;45.058;20.076;2022-09-12T10:34:51;2.70;;;1.20;;
59159;SDS011;44941;45.058;20.076;2022-09-12T10:37:22;3.33;;;1.35;;
59159;SDS011;44941;45.058;20.076;2022-09-12T10:39:50;5.57;;;1.60;;
59159;SDS011;44941;45.058;20.076;2022-09-12T10:42:39;5.38;;;1.60;;
59159;SDS011;44941;45.058;20.076;2022-09-12T10:45:04;4.03;;;1.60;;
59159;SDS011;44941;45.058;20.076;2022-09-12T10:47:30;3.60;;;1.80;;
59159;SDS011;44941;45.058;20.076;2022-09-12T10:50:17;4.32;;;1.52;;
59159;SDS011;44941;45.058;20.076;2022-09-12T10:52:43;4.55;;;1.42;;
59159;SDS011;44941;45.058;20.076;2022-09-12T10:55:15;3.88;;;1.55;;
59159;SDS011;44941;45.058;20.076;2022-09-12T10:57:53;3.88;;;1.52;;
59159;SDS011;44941;45.058;20.076;2022-09-12T11:00:22;6.28;;;1.70;;
59159;SDS011;44941;45.058;20.076;2022-09-12T11:15:51;3.22;;;1.38;;
59159;SDS011;44941;45.058;20.076;2022-09-12T11:26:05;4.10;;;1.25;;
59159;SDS011;44941;45.058;20.076;2022-09-12T11:28:41;5.50;;;1.35;;
59159;SDS011;44941;45.058;20.076;2022-09-12T11:33:50;3.00;;;1.50;;
59159;SDS011;44941;45.058;20.076;2022-09-12T11:38:50;3.70;;;1.33;;
59159;SDS011;44941;45.058;20.076;2022-09-12T11:41:24;3.13;;;1.15;;
59159;SDS011;44941;45.058;20.076;2022-09-12T11:43:58;2.55;;;0.93;;
59159;SDS011;44941;45.058;20.076;2022-09-12T11:46:35;2.40;;;0.90;;
59159;SDS011;44941;45.058;20.076;2022-09-12T11:52:20;5.75;;;1.08;;
59159;SDS011;44941;45.058;20.076;2022-09-12T11:54:28;4.95;;;1.17;;
59159;SDS011;44941;45.058;20.076;2022-09-12T12:02:13;2.67;;;1.30;;
59159;SDS011;44941;45.058;20.076;2022-09-12T12:04:43;5.57;;;1.10;;
59159;SDS011;44941;45.058;20.076;2022-09-12T12:07:13;3.28;;;1.30;;
59159;SDS011;44941;45.058;20.076;2022-09-12T12:09:44;2.92;;;1.27;;
59159;SDS011;44941;45.058;20.076;2022-09-12T12:12:13;3.17;;;1.17;;
59159;SDS011;44941;45.058;20.076;2022-09-12T12:14:41;4.00;;;1.40;;
59159;SDS011;44941;45.058;20.076;2022-09-12T12:17:12;4.00;;;1.13;;
59159;SDS011;44941;45.058;20.076;2022-09-12T12:19:39;4.90;;;1.20;;
59159;SDS011;44941;45.058;20.076;2022-09-12T12:22:07;2.00;;;1.10;;
59159;SDS011;44941;45.058;20.076;2022-09-12T12:24:34;4.65;;;1.35;;
59159;SDS011;44941;45.058;20.076;2022-09-12T12:27:02;4.40;;;1.27;;
59159;SDS011;44941;45.058;20.076;2022-09-12T12:29:39;5.28;;;1.10;;
59159;SDS011;44941;45.058;20.076;2022-09-12T12:34:38;2.65;;;1.13;;
59159;SDS011;44941;45.058;20.076;2022-09-12T12:47:26;2.78;;;1.27;;
59159;SDS011;44941;45.058;20.076;2022-09-12T12:54:58;2.58;;;0.90;;
59159;SDS011;44941;45.058;20.076;2022-09-12T12:57:26;3.67;;;0.90;;
59159;SDS011;44941;45.058;20.076;2022-09-12T12:59:57;2.35;;;0.98;;
59159;SDS011;44941;45.058;20.076;2022-09-12T13:04:51;2.33;;;0.93;;
59159;SDS011;44941;45.058;20.076;2022-09-12T13:07:23;2.57;;;0.90;;
59159;SDS011;44941;45.058;20.076;2022-09-12T13:09:51;3.60;;;1.00;;
59159;SDS011;44941;45.058;20.076;2022-09-12T13:12:23;1.48;;;0.75;;
59159;SDS011;44941;45.058;20.076;2022-09-12T13:17:26;1.65;;;1.00;;
59159;SDS011;44941;45.058;20.076;2022-09-12T13:19:53;1.52;;;1.00;;
59159;SDS011;44941;45.058;20.076;2022-09-12T13:22:37;5.43;;;0.95;;
59159;SDS011;44941;45.058;20.076;2022-09-12T13:25:15;2.13;;;0.88;;
59159;SDS011;44941;45.058;20.076;2022-09-12T13:27:54;2.28;;;1.10;;
59159;SDS011;44941;45.058;20.076;2022-09-12T13:30:21;3.92;;;1.08;;
59159;SDS011;44941;45.058;20.076;2022-09-12T13:32:47;1.58;;;1.00;;
59159;SDS011;44941;45.058;20.076;2022-09-12T13:35:34;2.33;;;1.02;;
59159;SDS011;44941;45.058;20.076;2022-09-12T13:38:17;2.15;;;0.90;;
59159;SDS011;44941;45.058;20.076;2022-09-12T13:43:22;2.72;;;1.20;;
59159;SDS011;44941;45.058;20.076;2022-09-12T13:45:51;4.28;;;1.05;;
59159;SDS011;44941;45.058;20.076;2022-09-12T13:48:19;3.25;;;1.00;;
59159;SDS011;44941;45.058;20.076;2022-09-12T13:50:50;5.65;;;1.17;;
59159;SDS011;44941;45.058;20.076;2022-09-12T13:53:21;2.60;;;0.95;;
59159;SDS011;44941;45.058;20.076;2022-09-12T13:55:57;3.67;;;1.00;;
59159;SDS011;44941;45.058;20.076;2022-09-12T13:58:25;2.17;;;0.88;;
59159;SDS011;44941;45.058;20.076;2022-09-12T14:03:31;2.90;;;1.65;;
59159;SDS011;44941;45.058;20.076;2022-09-12T14:06:16;5.85;;;1.10;;
59159;SDS011;44941;45.058;20.076;2022-09-12T14:08:43;2.73;;;1.00;;
59159;SDS011;44941;45.058;20.076;2022-09-12T14:11:14;6.53;;;0.93;;
59159;SDS011;44941;45.058;20.076;2022-09-12T14:13:42;3.30;;;1.17;;
59159;SDS011;44941;45.058;20.076;2022-09-12T14:16:10;2.45;;;1.08;;
59159;SDS011;44941;45.058;20.076;2022-09-12T14:18:36;1.83;;;0.90;;
59159;SDS011;44941;45.058;20.076;2022-09-12T14:21:08;2.10;;;0.85;;
59159;SDS011;44941;45.058;20.076;2022-09-12T14:23:36;2.53;;;1.00;;
59159;SDS011;44941;45.058;20.076;2022-09-12T14:26:05;2.25;;;0.90;;
59159;SDS011;44941;45.058;20.076;2022-09-12T14:28:34;2.08;;;0.90;;
59159;SDS011;44941;45.058;20.076;2022-09-12T14:33:27;7.20;;;1.00;;
59159;SDS011;44941;45.058;20.076;2022-09-12T14:36:10;2.60;;;1.10;;
59159;SDS011;44941;45.058;20.076;2022-09-12T14:38:41;2.63;;;0.93;;
59159;SDS011;44941;45.058;20.076;2022-09-12T14:41:08;7.63;;;1.38;;
59159;SDS011;44941;45.058;20.076;2022-09-12T14:43:36;3.13;;;0.70;;
59159;SDS011;44941;45.058;20.076;2022-09-12T14:46:07;4.70;;;1.20;;
59159;SDS011;44941;45.058;20.076;2022-09-12T14:48:43;3.40;;;0.98;;
59159;SDS011;44941;45.058;20.076;2022-09-12T14:53:56;3.45;;;1.10;;
59159;SDS011;44941;45.058;20.076;2022-09-12T14:56:36;2.58;;;1.10;;
59159;SDS011;44941;45.058;20.076;2022-09-12T15:01:47;3.05;;;0.98;;
59159;SDS011;44941;45.058;20.076;2022-09-12T15:04:35;3.50;;;1.10;;
59159;SDS011;44941;45.058;20.076;2022-09-12T15:06:59;6.32;;;1.00;;
59159;SDS011;44941;45.058;20.076;2022-09-12T15:09:38;4.93;;;1.40;;
59159;SDS011;44941;45.058;20.076;2022-09-12T15:12:04;5.55;;;1.30;;
59159;SDS011;44941;45.058;20.076;2022-09-12T15:14:31;5.85;;;1.30;;
59159;SDS011;44941;45.058;20.076;2022-09-12T15:16:57;4.45;;;1.23;;
59159;SDS011;44941;45.058;20.076;2022-09-12T15:19:23;3.10;;;1.05;;
59159;SDS011;44941;45.058;20.076;2022-09-12T15:21:49;4.40;;;1.20;;
59159;SDS011;44941;45.058;20.076;2022-09-12T15:24:15;6.40;;;1.67;;
59159;SDS011;44941;45.058;20.076;2022-09-12T15:26:41;5.47;;;2.60;;
59159;SDS011;44941;45.058;20.076;2022-09-12T15:29:07;17.40;;;4.68;;
59159;SDS011;44941;45.058;20.076;2022-09-12T15:31:33;11.40;;;6.10;;
59159;SDS011;44941;45.058;20.076;2022-09-12T15:34:00;16.38;;;5.72;;
59159;SDS011;44941;45.058;20.076;2022-09-12T15:36:26;8.57;;;4.30;;
59159;SDS011;44941;45.058;20.076;2022-09-12T15:38:55;7.88;;;2.72;;
59159;SDS011;44941;45.058;20.076;2022-09-12T15:41:24;5.28;;;1.80;;
59159;SDS011;44941;45.058;20.076;2022-09-12T15:43:51;4.22;;;1.33;;
59159;SDS011;44941;45.058;20.076;2022-09-12T15:46:17;2.80;;;1.00;;
59159;SDS011;44941;45.058;20.076;2022-09-12T15:48:44;7.32;;;1.40;;
59159;SDS011;44941;45.058;20.076;2022-09-12T15:51:14;4.57;;;1.30;;
59159;SDS011;44941;45.058;20.076;2022-09-12T15:53:40;3.58;;;1.20;;
59159;SDS011;44941;45.058;20.076;2022-09-12T15:56:07;3.83;;;1.30;;
59159;SDS011;44941;45.058;20.076;2022-09-12T15:58:33;6.43;;;1.30;;
59159;SDS011;44941;45.058;20.076;2022-09-12T16:00:59;4.22;;;1.13;;
59159;SDS011;44941;45.058;20.076;2022-09-12T16:03:26;2.55;;;1.20;;
59159;SDS011;44941;45.058;20.076;2022-09-12T16:05:57;5.38;;;1.40;;
59159;SDS011;44941;45.058;20.076;2022-09-12T16:08:25;6.35;;;1.40;;
59159;SDS011;44941;45.058;20.076;2022-09-12T16:10:55;5.47;;;1.70;;
59159;SDS011;44941;45.058;20.076;2022-09-12T16:13:22;5.03;;;1.67;;
59159;SDS011;44941;45.058;20.076;2022-09-12T16:15:48;6.80;;;1.70;;
59159;SDS011;44941;45.058;20.076;2022-09-12T16:18:14;7.65;;;1.92;;
59159;SDS011;44941;45.058;20.076;2022-09-12T16:20:40;7.35;;;1.17;;
59159;SDS011;44941;45.058;20.076;2022-09-12T16:23:10;5.47;;;1.60;;
59159;SDS011;44941;45.058;20.076;2022-09-12T16:25:37;4.57;;;1.73;;
59159;SDS011;44941;45.058;20.076;2022-09-12T16:28:03;9.23;;;2.13;;
59159;SDS011;44941;45.058;20.076;2022-09-12T16:30:38;4.43;;;1.45;;
59159;SDS011;44941;45.058;20.076;2022-09-12T16:33:07;4.28;;;1.40;;
59159;SDS011;44941;45.058;20.076;2022-09-12T16:35:34;3.95;;;1.35;;
59159;SDS011;44941;45.058;20.076;2022-09-12T16:38:00;8.07;;;1.70;;
59159;SDS011;44941;45.058;20.076;2022-09-12T16:40:27;3.90;;;1.35;;
59159;SDS011;44941;45.058;20.076;2022-09-12T16:42:57;13.50;;;1.60;;
59159;SDS011;44941;45.058;20.076;2022-09-12T16:45:26;5.55;;;1.60;;
59159;SDS011;44941;45.058;20.076;2022-09-12T16:50:28;6.43;;;1.70;;
59159;SDS011;44941;45.058;20.076;2022-09-12T16:52:54;3.80;;;1.63;;
59159;SDS011;44941;45.058;20.076;2022-09-12T16:55:20;5.55;;;1.70;;
59159;SDS011;44941;45.058;20.076;2022-09-12T16:57:46;3.22;;;1.60;;
59159;SDS011;44941;45.058;20.076;2022-09-12T17:00:13;3.83;;;1.50;;
59159;SDS011;44941;45.058;20.076;2022-09-12T17:02:40;8.15;;;2.00;;
59159;SDS011;44941;45.058;20.076;2022-09-12T17:05:06;6.28;;;2.50;;
59159;SDS011;44941;45.058;20.076;2022-09-12T17:07:32;4.18;;;1.95;;
59159;SDS011;44941;45.058;20.076;2022-09-12T17:09:59;6.55;;;2.45;;
59159;SDS011;44941;45.058;20.076;2022-09-12T17:12:25;5.28;;;1.70;;
59159;SDS011;44941;45.058;20.076;2022-09-12T17:14:51;9.57;;;1.70;;
59159;SDS011;44941;45.058;20.076;2022-09-12T17:17:17;3.42;;;1.40;;
59159;SDS011;44941;45.058;20.076;2022-09-12T17:19:43;3.35;;;1.20;;